.
WxDataArchive / Data Records for 2014-11-25
2014-11-24 November 2014 2014-11-26

Data Records for Tuesday, 25 November 2014

Time	Temp	Chill	HIndex	Humid	Dewpt	 Wind 	HiWind	WindDir	Rain 	Barom
-----	----	-----	------	-----	-----	------	------	-------	-----	-----
00:00	33.2	33.2	33.2	74	25.8	3	9	248	0.00	29.805 
00:05	33.2	33.2	33.2	74	25.8	3	11	248	0.00	29.805 
00:10	33.2	29.5	33.2	75	26.2	4	14	248	0.00	29.805 
00:15	33.2	29.5	33.2	75	26.2	4	10	248	0.00	29.811 
00:20	33.2	33.2	33.2	75	26.2	3	9	248	0.00	29.811 
00:25	33.2	33.2	33.2	76	26.5	3	10	248	0.00	29.811 
00:30	33.2	29.5	33.2	76	26.5	4	6	248	0.00	29.813 
00:35	33.2	33.2	33.2	76	26.5	3	7	248	0.00	29.813 
00:40	33.2	33.2	33.2	76	26.5	2	7	248	0.00	29.813 
00:45	33.2	33.2	33.2	77	26.8	2	7	248	0.00	29.822 
00:50	33.1	33.1	33.1	77	26.7	3	9	248	0.00	29.822 
00:55	33.1	33.1	33.1	77	26.7	3	10	248	0.00	29.822 
01:00	33.1	33.1	33.1	77	26.7	3	7	248	0.00	29.826 
01:05	32.9	28.1	32.9	75	25.9	5	11	270	0.00	29.826 
01:10	32.8	28.0	32.8	75	25.8	5	14	248	0.00	29.826 
01:15	32.8	29.0	32.8	74	25.4	4	10	248	0.00	29.826 
01:20	32.8	32.8	32.8	74	25.4	3	13	225	0.00	29.826 
01:25	32.7	32.7	32.7	74	25.3	2	5	248	0.00	29.826 
01:30	32.5	32.5	32.5	74	25.2	3	9	270	0.00	29.830 
01:35	32.2	32.2	32.2	73	24.5	3	9	248	0.00	29.830 
01:40	31.9	31.9	31.9	73	24.2	3	6	270	0.00	29.830 
01:45	31.8	27.8	31.8	73	24.1	4	9	248	0.00	29.842 
01:50	31.8	31.8	31.8	73	24.1	3	10	248	0.00	29.842 
01:55	31.8	27.8	31.8	74	24.5	4	11	248	0.00	29.842 
02:00	31.8	31.8	31.8	74	24.5	1	5	248	0.00	29.848 
02:05	31.6	31.6	31.6	74	24.3	1	5	248	0.00	29.848 
02:10	31.6	31.6	31.6	75	24.6	2	6	248	0.00	29.848 
02:15	31.5	31.5	31.5	75	24.5	2	5	248	0.00	29.856 
02:20	31.5	31.5	31.5	76	24.8	2	5	270	0.00	29.856 
02:25	31.5	31.5	31.5	75	24.5	3	9	248	0.00	29.856 
02:30	31.5	31.5	31.5	74	24.2	3	10	248	0.00	29.860 
02:35	31.5	31.5	31.5	75	24.5	2	6	248	0.00	29.860 
02:40	31.5	31.5	31.5	75	24.5	2	7	248	0.00	29.860 
02:45	31.3	31.3	31.3	76	24.6	2	6	225	0.00	29.868 
02:50	31.3	31.3	31.3	76	24.6	2	7	248	0.00	29.868 
02:55	31.3	31.3	31.3	76	24.6	3	8	248	0.00	29.868 
03:00	31.2	31.2	31.2	77	24.8	2	11	248	0.00	29.874 
03:05	31.2	31.2	31.2	77	24.8	2	7	248	0.00	29.874 
03:10	31.2	31.2	31.2	76	24.5	2	13	248	0.00	29.874 
03:15	31.3	31.3	31.3	77	24.9	3	11	248	0.00	29.877 
03:20	31.3	31.3	31.3	76	24.6	2	5	248	0.00	29.877 
03:25	31.3	31.3	31.3	76	24.6	2	9	248	0.00	29.877 
03:30	31.3	31.3	31.3	76	24.6	2	9	248	0.00	29.880 
03:35	31.3	31.3	31.3	76	24.6	1	5	248	0.00	29.880 
03:40	31.3	31.3	31.3	75	24.3	2	5	248	0.00	29.880 
03:45	31.2	31.2	31.2	75	24.2	2	6	248	0.00	29.880 
03:50	31.2	31.2	31.2	75	24.2	3	7	248	0.00	29.880 
03:55	31.3	31.3	31.3	75	24.3	3	10	248	0.00	29.880 
04:00	31.3	31.3	31.3	75	24.3	2	7	248	0.00	29.890 
04:05	31.2	31.2	31.2	75	24.2	3	6	270	0.00	29.890 
04:10	31.2	31.2	31.2	75	24.2	2	6	270	0.00	29.890 
04:15	31.2	31.2	31.2	75	24.2	2	6	248	0.00	29.892 
04:20	31.2	31.2	31.2	76	24.5	2	6	248	0.00	29.892 
04:25	31.2	31.2	31.2	76	24.5	3	7	248	0.00	29.892 
04:30	31.2	31.2	31.2	76	24.5	1	4	248	0.00	29.895 
04:35	31.2	31.2	31.2	76	24.5	2	6	248	0.00	29.895 
04:40	31.2	31.2	31.2	76	24.5	2	5	248	0.00	29.895 
04:45	31.2	31.2	31.2	76	24.5	1	4	248	0.00	29.897 
04:50	31.2	31.2	31.2	76	24.5	2	4	248	0.00	29.897 
04:55	31.2	31.2	31.2	76	24.5	2	6	248	0.00	29.897 
05:00	31.2	31.2	31.2	76	24.5	2	5	248	0.00	29.909 
05:05	31.2	31.2	31.2	76	24.5	2	5	248	0.00	29.909 
05:10	31.2	31.2	31.2	76	24.5	1	4	248	0.00	29.909 
05:15	31.2	31.2	31.2	76	24.5	3	6	248	0.00	29.911 
05:20	31.2	31.2	31.2	76	24.5	2	6	248	0.00	29.911 
05:25	31.2	31.2	31.2	76	24.5	2	6	248	0.00	29.911 
05:30	31.2	31.2	31.2	76	24.5	2	5	248	0.00	29.918 
05:35	31.2	31.2	31.2	76	24.5	2	6	270	0.00	29.918 
05:40	31.2	31.2	31.2	76	24.5	1	5	248	0.00	29.918 
05:45	31.2	31.2	31.2	77	24.8	1	5	248	0.00	29.922 
05:50	31.2	31.2	31.2	76	24.5	2	5	248	0.00	29.922 
05:55	31.2	31.2	31.2	76	24.5	3	7	248	0.00	29.922 
06:00	31.3	31.3	31.3	76	24.6	1	6	248	0.00	29.929 
06:05	31.3	31.3	31.3	76	24.6	2	6	248	0.00	29.929 
06:10	31.5	31.5	31.5	76	24.8	1	4	248	0.00	29.929 
06:15	31.5	31.5	31.5	76	24.8	2	6	248	0.00	29.939 
06:20	31.5	31.5	31.5	76	24.8	2	6	248	0.00	29.939 
06:25	31.5	31.5	31.5	76	24.8	2	5	248	0.00	29.939 
06:30	31.5	31.5	31.5	76	24.8	1	5	248	0.00	29.943 
06:35	31.5	31.5	31.5	77	25.1	1	4	225	0.00	29.943 
06:40	31.5	31.5	31.5	77	25.1	2	5	270	0.00	29.943 
06:45	31.5	31.5	31.5	77	25.1	2	5	270	0.00	29.950 
06:50	31.5	31.5	31.5	77	25.1	1	4	248	0.00	29.950 
06:55	31.3	31.3	31.3	77	24.9	1	5	248	0.00	29.950 
07:00	31.3	31.3	31.3	77	24.9	2	5	248	0.00	29.955 
07:05	31.3	31.3	31.3	76	24.6	3	7	270	0.00	29.955 
07:10	31.3	31.3	31.3	76	24.6	3	7	270	0.00	29.955 
07:15	31.3	31.3	31.3	77	24.9	2	9	248	0.00	29.961 
07:20	31.2	31.2	31.2	77	24.8	2	7	248	0.00	29.961 
07:25	31.2	31.2	31.2	77	24.8	3	11	248	0.00	29.961 
07:30	31.2	31.2	31.2	77	24.8	2	6	248	0.00	29.961 
07:35	31.0	31.0	31.0	77	24.7	1	4	248	0.00	29.961 
07:40	30.9	30.9	30.9	77	24.6	2	4	248	0.00	29.961 
07:45	30.9	30.9	30.9	77	24.6	1	3	248	0.00	29.964 
07:50	30.7	30.7	30.7	77	24.4	1	4	248	0.00	29.964 
07:55	30.7	30.7	30.7	76	24.0	3	6	248	0.00	29.964 
08:00	30.7	30.7	30.7	76	24.0	2	5	248	0.00	29.971 
08:05	30.7	30.7	30.7	77	24.4	3	6	248	0.00	29.971 
08:10	30.7	30.7	30.7	77	24.4	2	4	248	0.00	29.971 
08:15	30.6	30.6	30.6	77	24.3	3	5	248	0.00	29.980 
08:20	30.6	30.6	30.6	78	24.6	2	6	248	0.00	29.980 
08:25	30.4	30.4	30.4	78	24.4	2	5	248	0.00	29.980 
08:30	30.3	30.3	30.3	78	24.3	3	7	248	0.00	29.988 
08:35	30.1	30.1	30.1	80	24.7	2	4	248	0.00	29.988 
08:40	30.0	30.0	30.0	80	24.6	2	4	248	0.00	29.988 
08:45	29.8	29.8	29.8	81	24.7	1	4	248	0.00	29.990 
08:50	29.8	29.8	29.8	82	25.0	1	4	248	0.00	29.990 
08:55	29.8	29.8	29.8	82	25.0	2	5	248	0.00	29.990 
09:00	29.7	29.7	29.7	82	24.9	1	4	248	0.00	29.994 
09:05	29.7	29.7	29.7	82	24.9	2	5	248	0.00	29.994 
09:10	29.7	29.7	29.7	82	24.9	2	5	248	0.00	29.994 
09:15	29.8	29.8	29.8	82	25.0	1	4	270	0.00	30.001 
09:20	29.8	29.8	29.8	82	25.0	1	4	270	0.00	30.001 
09:25	29.8	29.8	29.8	82	25.0	1	4	270	0.00	30.001 
09:30	29.8	29.8	29.8	82	25.0	1	4	270	0.00	30.008 
09:35	29.8	29.8	29.8	82	25.0	2	4	292	0.00	30.008 
09:40	29.8	29.8	29.8	82	25.0	2	6	270	0.00	30.008 
09:45	29.7	29.7	29.7	81	24.6	2	7	248	0.00	30.020 
09:50	29.7	29.7	29.7	81	24.6	3	5	270	0.00	30.020 
09:55	29.7	29.7	29.7	81	24.6	2	4	292	0.00	30.020 
10:00	29.5	29.5	29.5	79	23.8	3	7	248	0.00	30.027 
10:05	29.5	29.5	29.5	79	23.8	3	6	248	0.00	30.027 
10:10	29.5	29.5	29.5	79	23.8	2	5	270	0.00	30.027 
10:15	29.4	29.4	29.4	78	23.4	3	5	270	0.00	30.039 
10:20	29.4	29.4	29.4	79	23.7	2	6	248	0.00	30.039 
10:25	29.3	29.3	29.3	79	23.6	1	5	270	0.00	30.039 
10:30	29.3	29.3	29.3	79	23.6	1	5	270	0.00	30.049 
10:35	29.3	29.3	29.3	79	23.6	2	4	270	0.00	30.049 
10:40	29.3	29.3	29.3	79	23.6	3	6	248	0.00	30.049 
10:45	29.1	29.1	29.1	79	23.4	3	6	270	0.00	30.060 
10:50	29.0	24.6	29.0	79	23.3	4	10	270	0.00	30.060 
10:55	29.0	29.0	29.0	79	23.3	3	7	270	0.00	30.060 
11:00	28.8	28.8	28.8	79	23.1	3	8	248	0.00	30.069 
11:05	29.0	29.0	29.0	80	23.6	2	5	248	0.00	30.069 
11:10	28.8	28.8	28.8	80	23.4	2	5	248	0.00	30.069 
11:15	28.8	28.8	28.8	79	23.1	3	6	248	0.00	30.080 
11:20	28.8	28.8	28.8	80	23.4	2	6	248	0.00	30.080 
11:25	28.7	28.7	28.7	79	23.0	2	4	248	0.00	30.080 
11:30	28.7	28.7	28.7	78	22.7	3	6	248	0.00	30.085 
11:35	28.8	28.8	28.8	77	22.5	3	10	270	0.00	30.085 
11:40	28.8	28.8	28.8	77	22.5	2	5	248	0.00	30.085 
11:45	29.0	29.0	29.0	77	22.7	2	4	248	0.00	30.088 
11:50	29.0	29.0	29.0	75	22.1	3	7	248	0.00	30.088 
11:55	29.0	29.0	29.0	74	21.8	3	7	270	0.00	30.088 
12:00	29.0	29.0	29.0	73	21.4	3	10	248	0.00	30.092 
12:05	28.8	28.8	28.8	71	20.6	3	6	248	0.00	30.092 
12:10	28.8	28.8	28.8	72	20.9	2	6	270	0.00	30.092 
12:15	29.0	29.0	29.0	72	21.1	2	9	248	0.00	30.091 
12:20	29.3	29.3	29.3	72	21.4	1	5	248	0.00	30.091 
12:25	29.3	29.3	29.3	71	21.1	3	5	248	0.00	30.091 
12:30	29.1	29.1	29.1	71	20.9	2	5	248	0.00	30.095 
12:35	29.1	29.1	29.1	71	20.9	2	5	248	0.00	30.095 
12:40	29.0	29.0	29.0	69	20.1	2	6	248	0.00	30.095 
12:45	29.1	29.1	29.1	69	20.2	2	5	248	0.00	30.092 
12:50	29.3	29.3	29.3	69	20.4	1	3	270	0.00	30.092 
12:55	29.4	29.4	29.4	68	20.2	2	5	248	0.00	30.092 
13:00	29.5	29.5	29.5	68	20.3	1	4	248	0.00	30.089 
13:05	29.7	29.7	29.7	68	20.5	1	4	248	0.00	30.089 
13:10	29.5	29.5	29.5	68	20.3	2	4	270	0.00	30.089 
13:15	29.5	29.5	29.5	67	19.9	2	5	270	0.00	30.093 
13:20	29.5	29.5	29.5	67	19.9	2	5	270	0.00	30.093 
13:25	29.5	29.5	29.5	67	19.9	2	5	248	0.00	30.093 
13:30	29.5	29.5	29.5	67	19.9	2	4	270	0.00	30.090 
13:35	29.5	29.5	29.5	68	20.3	1	3	270	0.00	30.090 
13:40	29.7	29.7	29.7	69	20.8	1	3	270	0.00	30.090 
13:45	30.0	30.0	30.0	69	21.1	1	3	270	0.00	30.095 
13:50	29.8	29.8	29.8	67	20.2	2	5	270	0.00	30.095 
13:55	29.8	29.8	29.8	67	20.2	1	4	292	0.00	30.095 
14:00	29.5	29.5	29.5	66	19.6	2	5	270	0.00	30.105 
14:05	29.5	29.5	29.5	68	20.3	1	3	270	0.00	30.105 
14:10	29.5	29.5	29.5	68	20.3	1	4	270	0.00	30.105 
14:15	29.4	29.4	29.4	69	20.5	1	4	270	0.00	30.115 
14:20	29.4	29.4	29.4	70	20.8	1	3	270	0.00	30.115 
14:25	29.3	29.3	29.3	69	20.4	2	5	248	0.00	30.115 
14:30	29.3	29.3	29.3	70	20.8	0	3	270	0.00	30.121 
14:35	29.3	29.3	29.3	69	20.4	1	4	270	0.00	30.121 
14:40	29.1	29.1	29.1	69	20.2	1	5	248	0.00	30.121 
14:45	29.1	29.1	29.1	68	19.9	1	4	248	0.00	30.122 
14:50	29.3	29.3	29.3	68	20.1	1	3	248	0.00	30.122 
14:55	29.3	29.3	29.3	68	20.1	2	4	248	0.00	30.122 
15:00	29.3	29.3	29.3	68	20.1	1	3	248	0.00	30.130 
15:05	29.3	29.3	29.3	69	20.4	1	3	248	0.00	30.130 
15:10	29.1	29.1	29.1	69	20.2	1	4	248	0.00	30.130 
15:15	29.1	29.1	29.1	68	19.9	1	3	248	0.00	30.132 
15:20	29.1	29.1	29.1	68	19.9	1	2	248	0.00	30.132 
15:25	29.1	29.1	29.1	68	19.9	1	3	248	0.00	30.132 
15:30	29.1	29.1	29.1	68	19.9	1	3	248	0.00	30.136 
15:35	29.0	29.0	29.0	68	19.8	1	4	248	0.00	30.136 
15:40	29.0	29.0	29.0	68	19.8	1	2	248	0.00	30.136 
15:45	28.8	28.8	28.8	68	19.6	2	5	248	0.00	30.135 
15:50	28.8	28.8	28.8	68	19.6	1	3	248	0.00	30.135 
15:55	28.7	28.7	28.7	69	19.8	0	3	248	0.00	30.135 
16:00	28.8	28.8	28.8	69	19.9	1	3	248	0.00	30.147 
16:05	28.7	28.7	28.7	68	19.5	1	3	292	0.00	30.147 
16:10	28.4	28.4	28.4	69	19.5	2	3	292	0.00	30.147 
16:15	28.2	28.2	28.2	71	20.0	0	2	292	0.00	30.155 
16:20	28.1	28.1	28.1	71	19.9	1	4	292	0.00	30.155 
16:25	28.1	28.1	28.1	71	19.9	0	3	315	0.00	30.155 
16:30	28.1	28.1	28.1	71	19.9	1	3	270	0.00	30.165 
16:35	27.9	27.9	27.9	72	20.1	1	3	270	0.00	30.165 
16:40	27.9	27.9	27.9	72	20.1	0	2	270	0.00	30.165 
16:45	27.8	27.8	27.8	72	20.0	0	2	270	0.00	30.164 
16:50	27.8	27.8	27.8	72	20.0	0	3	270	0.00	30.164 
16:55	27.8	27.8	27.8	72	20.0	1	3	270	0.00	30.164 
17:00	27.6	27.6	27.6	72	19.8	0	3	292	0.00	30.165 
17:05	27.5	27.5	27.5	73	20.0	0	2	292	0.00	30.165 
17:10	27.3	27.3	27.3	73	19.8	0	2	292	0.00	30.165 
17:15	27.3	27.3	27.3	73	19.8	0	2	292	0.00	30.177 
17:20	27.2	27.2	27.2	73	19.7	0	2	292	0.00	30.177 
17:25	27.2	27.2	27.2	74	20.0	0	2	292	0.00	30.177 
17:30	27.2	27.2	27.2	74	20.0	0	2	292	0.00	30.187 
17:35	27.0	27.0	27.0	74	19.8	0	0	---	0.00	30.187 
17:40	26.9	26.9	26.9	74	19.7	0	3	292	0.00	30.187 
17:45	26.7	26.7	26.7	74	19.5	1	2	292	0.00	30.177 
17:50	26.6	26.6	26.6	74	19.5	0	2	292	0.00	30.177 
17:55	26.4	26.4	26.4	75	19.6	0	2	292	0.00	30.177 
18:00	26.4	26.4	26.4	74	19.3	0	2	292	0.00	30.174 
18:05	26.4	26.4	26.4	74	19.3	0	2	292	0.00	30.174 
18:10	26.3	26.3	26.3	74	19.2	0	3	292	0.00	30.174 
18:15	26.1	26.1	26.1	74	19.0	0	2	292	0.00	30.172 
18:20	26.1	26.1	26.1	74	19.0	0	1	292	0.00	30.172 
18:25	26.1	26.1	26.1	74	19.0	0	1	292	0.00	30.172 
18:30	26.1	26.1	26.1	75	19.3	0	1	292	0.00	30.178 
18:35	26.1	26.1	26.1	75	19.3	0	1	292	0.00	30.178 
18:40	26.3	26.3	26.3	75	19.5	0	1	292	0.00	30.178 
18:45	26.3	26.3	26.3	75	19.5	0	0	---	0.00	30.183 
18:50	26.3	26.3	26.3	75	19.5	0	1	292	0.00	30.183 
18:55	26.1	26.1	26.1	75	19.3	0	1	292	0.00	30.183 
19:00	26.1	26.1	26.1	75	19.3	0	1	292	0.00	30.199 
19:05	26.1	26.1	26.1	75	19.3	0	0	---	0.00	30.199 
19:10	26.0	26.0	26.0	74	18.9	0	0	---	0.00	30.199 
19:15	26.0	26.0	26.0	74	18.9	0	2	292	0.00	30.208 
19:20	26.0	26.0	26.0	75	19.2	0	1	292	0.00	30.208 
19:25	26.0	26.0	26.0	75	19.2	0	1	292	0.00	30.208 
19:30	26.0	26.0	26.0	75	19.2	0	1	292	0.00	30.206 
19:35	26.0	26.0	26.0	75	19.2	0	1	292	0.00	30.206 
19:40	26.0	26.0	26.0	75	19.2	0	1	292	0.00	30.206 
19:45	26.0	26.0	26.0	74	18.9	0	2	292	0.00	30.220 
19:50	26.0	26.0	26.0	74	18.9	0	1	292	0.00	30.220 
19:55	26.0	26.0	26.0	74	18.9	0	1	292	0.00	30.220 
20:00	26.0	26.0	26.0	75	19.2	0	0	---	0.00	30.218 
20:05	26.0	26.0	26.0	75	19.2	0	1	292	0.00	30.218 
20:10	26.0	26.0	26.0	75	19.2	0	0	---	0.00	30.218 
20:15	26.0	26.0	26.0	74	18.9	0	2	292	0.00	30.225 
20:20	26.0	26.0	26.0	75	19.2	0	0	---	0.00	30.225 
20:25	26.0	26.0	26.0	75	19.2	0	1	292	0.00	30.225 
20:30	26.0	26.0	26.0	75	19.2	0	1	292	0.00	30.230 
20:35	26.0	26.0	26.0	75	19.2	0	1	292	0.00	30.230 
20:40	26.0	26.0	26.0	75	19.2	0	1	292	0.00	30.230 
20:45	26.0	26.0	26.0	74	18.9	0	0	---	0.00	30.231 
20:50	26.0	26.0	26.0	75	19.2	0	0	---	0.00	30.231 
20:55	26.1	26.1	26.1	75	19.3	0	0	---	0.00	30.231 
21:00	26.1	26.1	26.1	75	19.3	0	0	---	0.00	30.237 
21:05	26.3	26.3	26.3	75	19.5	0	0	---	0.00	30.237 
21:10	26.3	26.3	26.3	76	19.8	0	0	---	0.00	30.237 
21:15	26.3	26.3	26.3	75	19.5	0	1	292	0.00	30.235 
21:20	26.1	26.1	26.1	75	19.3	0	0	---	0.00	30.235 
21:25	26.1	26.1	26.1	75	19.3	0	0	---	0.00	30.235 
21:30	26.1	26.1	26.1	75	19.3	0	0	---	0.00	30.236 
21:35	26.0	26.0	26.0	75	19.2	0	0	---	0.00	30.236 
21:40	26.0	26.0	26.0	75	19.2	0	1	292	0.00	30.236 
21:45	26.0	26.0	26.0	75	19.2	0	1	292	0.00	30.236 
21:50	26.0	26.0	26.0	75	19.2	0	0	---	0.00	30.236 
21:55	26.0	26.0	26.0	75	19.2	0	3	292	0.00	30.236 
22:00	26.0	26.0	26.0	75	19.2	0	2	292	0.00	30.236 
22:05	26.0	26.0	26.0	75	19.2	0	1	292	0.00	30.236 
22:10	26.0	26.0	26.0	75	19.2	0	1	292	0.00	30.236 
22:15	25.8	25.8	25.8	75	19.0	0	1	292	0.00	30.236 
22:20	25.8	25.8	25.8	75	19.0	0	0	---	0.00	30.236 
22:25	25.8	25.8	25.8	75	19.0	0	0	---	0.00	30.236 
22:30	25.8	25.8	25.8	76	19.3	0	0	---	0.00	30.233 
22:35	25.8	25.8	25.8	76	19.3	0	0	---	0.00	30.233 
22:40	25.8	25.8	25.8	76	19.3	0	0	---	0.00	30.233 
22:45	25.8	25.8	25.8	75	19.0	0	1	292	0.00	30.224 
22:50	25.7	25.7	25.7	75	18.9	0	2	292	0.00	30.224 
22:55	25.7	25.7	25.7	76	19.2	0	0	---	0.00	30.224 
23:00	25.7	25.7	25.7	76	19.2	0	0	---	0.00	30.223 
23:05	25.7	25.7	25.7	76	19.2	0	0	---	0.00	30.223 
23:10	25.7	25.7	25.7	76	19.2	0	1	292	0.00	30.223 
23:15	25.7	25.7	25.7	76	19.2	0	0	---	0.00	30.221 
23:20	25.7	25.7	25.7	76	19.2	0	0	---	0.00	30.221 
23:25	25.6	25.6	25.6	76	19.1	0	0	---	0.00	30.221 
23:30	25.6	25.6	25.6	76	19.1	0	0	---	0.00	30.223 
23:35	25.6	25.6	25.6	76	19.1	0	1	292	0.00	30.223 
23:40	25.6	25.6	25.6	76	19.1	0	0	---	0.00	30.223 
23:45	25.7	25.7	25.7	77	19.5	0	0	---	0.00	30.225 
23:50	25.7	25.7	25.7	76	19.2	1	3	292	0.00	30.225 
23:55	25.6	25.6	25.6	76	19.1	0	2	292	0.00	30.225 

CoCoRaHS
IN-AL-39
A2 Web Hosting
Creative Commons License
GoDaddy
search engine by freefind advanced

loaded 2018-11-17 00:29:08 • last modified 2010-11-18 10:43:29
Privacy PolicyDisclaimer
• wx.awcolley.com is powered by PmWiki v.2002016 •
• all content (unless otherwise noted) © 2018 A W Colley